Time;durP1;ratioP1;P1;durP2;ratioP2;P2;SDS_P1;SDS_P2;PMS_P1;PMS_P2;Temp;Humidity;BMP_temperature;BMP_pressure;BME280_temperature;BME280_humidity;BME280_pressure;Samples;Min_cycle;Max_cycle;Signal;HPM_P1;HPM_P2
2022/04/25 00:00:12;;;;;;;15.48;7.43;;;11.30;59.40;;;;;;9182210;19;20025;-71
2022/04/25 00:03:17;;;;;;;14.00;7.05;;;11.30;59.60;;;;;;9179228;19;20018;-71
2022/04/25 00:06:23;;;;;;;14.30;7.85;;;11.30;59.60;;;;;;9180450;19;20456;-71
2022/04/25 00:09:28;;;;;;;14.55;8.68;;;11.30;59.60;;;;;;9175585;19;20015;-71
2022/04/25 00:12:33;;;;;;;17.33;9.07;;;11.30;59.90;;;;;;9182279;19;20362;-71
2022/04/25 00:15:40;;;;;;;20.23;8.57;;;11.20;60.00;;;;;;9180771;19;20904;-71
2022/04/25 00:18:47;;;;;;;16.77;8.57;;;11.20;60.30;;;;;;9180515;19;20023;-71
2022/04/25 00:21:52;;;;;;;18.55;9.05;;;11.20;60.30;;;;;;9179826;19;20074;-70
2022/04/25 00:24:57;;;;;;;16.13;9.15;;;11.20;60.50;;;;;;9180505;19;20021;-70
2022/04/25 00:28:03;;;;;;;14.30;9.30;;;11.20;60.60;;;;;;9180263;19;20044;-70
2022/04/25 00:31:11;;;;;;;16.25;8.70;;;11.20;60.80;;;;;;9181453;19;20014;-70
2022/04/25 00:34:16;;;;;;;19.60;9.20;;;11.20;61.00;;;;;;9180541;19;20023;-70
2022/04/25 00:37:21;;;;;;;17.38;10.00;;;11.20;60.90;;;;;;9182872;19;20478;-71
2022/04/25 00:40:28;;;;;;;13.25;9.60;;;11.20;61.10;;;;;;9182279;19;20460;-70
2022/04/25 00:43:33;;;;;;;18.00;9.75;;;11.10;61.10;;;;;;9178687;19;20500;-70
2022/04/25 00:46:42;;;;;;;19.23;9.65;;;11.10;61.20;;;;;;9180118;19;20021;-70
2022/04/25 00:49:47;;;;;;;15.32;9.18;;;11.10;61.40;;;;;;9181318;19;20374;-70
2022/04/25 00:52:52;;;;;;;13.77;9.20;;;11.10;61.40;;;;;;9180846;19;20417;-70
2022/04/25 00:55:59;;;;;;;19.13;9.80;;;11.10;61.50;;;;;;9181694;19;20480;-72
2022/04/25 00:59:05;;;;;;;15.65;10.30;;;11.10;61.60;;;;;;9179418;19;20010;-70
2022/04/25 01:02:13;;;;;;;14.63;9.32;;;11.10;61.70;;;;;;9177080;19;20011;-70
2022/04/25 01:05:19;;;;;;;17.70;10.02;;;11.10;61.90;;;;;;9181743;19;20014;-71
2022/04/25 01:08:24;;;;;;;13.68;9.27;;;11.10;61.90;;;;;;9179081;19;20010;-70
2022/04/25 01:11:29;;;;;;;16.88;8.98;;;11.10;61.90;;;;;;9178525;19;20037;-71
2022/04/25 01:14:34;;;;;;;18.35;9.70;;;11.10;62.00;;;;;;9180992;19;20094;-70
2022/04/25 01:17:42;;;;;;;14.25;9.30;;;11.10;62.00;;;;;;9178976;19;20384;-70
2022/04/25 01:20:47;;;;;;;15.90;10.38;;;11.20;62.20;;;;;;9180690;19;20006;-71
2022/04/25 01:27:19;;;;;;;15.27;9.63;;;11.10;62.30;;;;;;9176132;19;20391;-70
2022/04/25 01:30:24;;;;;;;18.35;10.70;;;11.10;62.20;;;;;;9179297;19;20467;-70
2022/04/25 01:33:29;;;;;;;19.70;11.60;;;11.10;62.30;;;;;;9183286;19;20034;-70
2022/04/25 01:36:34;;;;;;;15.80;10.75;;;11.10;62.30;;;;;;9187349;19;20014;-70
2022/04/25 01:39:43;;;;;;;23.52;12.82;;;11.10;62.50;;;;;;9186554;19;20018;-70
2022/04/25 01:42:48;;;;;;;21.67;12.48;;;11.10;62.60;;;;;;9185999;19;20492;-70
2022/04/25 01:45:53;;;;;;;29.25;13.68;;;11.00;62.60;;;;;;9189981;19;20030;-70
2022/04/25 01:48:58;;;;;;;21.77;11.95;;;11.00;62.70;;;;;;9186825;19;20362;-70
2022/04/25 01:52:04;;;;;;;21.42;12.55;;;10.90;62.70;;;;;;9186310;19;20022;-70
2022/04/25 01:55:12;;;;;;;21.73;12.00;;;10.90;62.90;;;;;;9187162;19;20010;-70
2022/04/25 01:58:17;;;;;;;26.90;12.35;;;10.90;63.00;;;;;;9186147;19;20033;-71
2022/04/25 02:01:22;;;;;;;25.33;12.82;;;10.90;63.00;;;;;;9184993;19;20705;-70
2022/04/25 02:04:27;;;;;;;21.23;12.95;;;10.90;63.10;;;;;;9184826;19;20371;-70
2022/04/25 02:07:33;;;;;;;20.85;13.70;;;10.80;63.10;;;;;;9185356;19;20018;-70
2022/04/25 02:11:19;;;;;;;18.52;13.05;;;10.80;63.20;;;;;;9182849;19;20007;-70
2022/04/25 02:14:05;;;;;;;18.75;12.82;;;10.80;63.40;;;;;;9186569;19;20014;-71
2022/04/25 02:17:10;;;;;;;24.08;14.60;;;10.70;63.30;;;;;;9185527;19;20019;-70
2022/04/25 02:20:16;;;;;;;23.67;12.80;;;10.70;63.40;;;;;;9186867;19;20015;-70
2022/04/25 02:23:21;;;;;;;22.65;12.98;;;10.70;63.50;;;;;;9183729;19;20073;-70
2022/04/25 02:26:28;;;;;;;24.13;13.55;;;10.60;63.60;;;;;;9181289;19;20476;-70
2022/04/25 02:29:33;;;;;;;24.98;13.20;;;10.60;63.80;;;;;;9186367;19;20113;-71
2022/04/25 02:32:38;;;;;;;23.17;14.18;;;10.60;63.80;;;;;;9184109;19;20103;-70
2022/04/25 02:35:43;;;;;;;20.77;14.07;;;10.60;63.90;;;;;;9185928;19;20010;-70
2022/04/25 02:38:48;;;;;;;23.83;13.95;;;10.60;64.00;;;;;;9184712;19;20018;-70
2022/04/25 02:41:56;;;;;;;30.98;14.40;;;10.50;64.00;;;;;;9184861;19;20018;-70
2022/04/25 02:45:01;;;;;;;24.23;14.88;;;10.50;64.10;;;;;;9183756;19;20015;-70
2022/04/25 02:48:06;;;;;;;29.98;14.75;;;10.50;64.10;;;;;;9185876;19;20022;-70
2022/04/25 02:51:13;;;;;;;23.50;14.93;;;10.50;64.20;;;;;;9183965;19;20014;-70
2022/04/25 02:54:18;;;;;;;25.10;14.45;;;10.50;64.20;;;;;;9184301;19;20022;-71
2022/04/25 02:57:26;;;;;;;27.08;14.75;;;10.50;64.40;;;;;;9183409;19;20014;-70
2022/04/25 03:00:31;;;;;;;25.05;13.95;;;10.40;64.40;;;;;;9183539;19;20360;-70
2022/04/25 03:03:37;;;;;;;25.20;13.95;;;10.40;64.30;;;;;;9185331;19;20015;-70
2022/04/25 03:06:43;;;;;;;22.05;13.10;;;10.40;64.40;;;;;;9183600;19;20935;-70
2022/04/25 03:09:47;;;;;;;27.25;14.48;;;10.40;64.50;;;;;;9180059;19;20014;-70
2022/04/25 03:12:55;;;;;;;23.60;14.43;;;10.30;64.50;;;;;;9184105;19;20500;-71
2022/04/25 03:16:00;;;;;;;24.75;14.15;;;10.30;64.60;;;;;;9182755;19;20019;-70
2022/04/25 03:19:05;;;;;;;25.80;14.43;;;10.30;64.60;;;;;;9183080;19;20018;-70
2022/04/25 03:22:10;;;;;;;24.73;14.93;;;10.30;64.60;;;;;;9180138;19;20360;-70
2022/04/25 03:25:15;;;;;;;27.77;14.63;;;10.30;64.70;;;;;;9183323;19;20023;-70
2022/04/25 03:28:23;;;;;;;25.35;15.85;;;10.30;64.70;;;;;;9182386;19;20014;-70
2022/04/25 03:31:28;;;;;;;35.05;15.18;;;10.20;64.90;;;;;;9184700;19;20823;-70
2022/04/25 03:34:36;;;;;;;28.63;16.40;;;10.20;64.80;;;;;;9183237;19;20014;-70
2022/04/25 03:37:41;;;;;;;28.30;16.88;;;10.20;64.90;;;;;;9181998;19;20010;-70
2022/04/25 03:40:47;;;;;;;28.00;16.60;;;10.20;65.00;;;;;;9182311;19;20026;-70
2022/04/25 03:43:55;;;;;;;26.33;16.75;;;10.20;65.00;;;;;;9181313;19;20014;-70
2022/04/25 03:46:59;;;;;;;30.67;17.63;;;10.10;65.00;;;;;;9183293;19;20014;-70
2022/04/25 03:50:08;;;;;;;37.65;20.25;;;10.10;64.90;;;;;;9184373;19;20010;-70
2022/04/25 03:53:15;;;;;;;41.95;20.35;;;10.10;65.10;;;;;;9182067;19;20029;-71
2022/04/25 03:59:39;;;;;;;39.05;23.45;;;10.10;65.20;;;;;;9182032;19;20022;-71
2022/04/25 04:02:44;;;;;;;39.92;24.40;;;10.10;65.20;;;;;;9181002;19;20022;-71
2022/04/25 04:05:50;;;;;;;42.88;25.02;;;10.10;65.20;;;;;;9179006;19;20021;-70
2022/04/25 04:08:56;;;;;;;43.17;23.48;;;10.10;65.30;;;;;;9177346;19;20025;-71
2022/04/25 04:12:01;;;;;;;42.63;23.10;;;10.10;65.30;;;;;;9182096;19;20010;-71
2022/04/25 04:15:09;;;;;;;36.13;21.20;;;10.10;65.30;;;;;;9181092;19;20011;-69
2022/04/25 04:18:14;;;;;;;38.80;22.65;;;10.00;65.40;;;;;;9177962;19;20122;-71
2022/04/25 04:21:21;;;;;;;37.33;20.80;;;10.00;65.40;;;;;;9181875;19;20022;-71
2022/04/25 04:24:26;;;;;;;42.10;21.08;;;10.10;65.50;;;;;;9179848;19;20006;-71
2022/04/25 04:27:32;;;;;;;38.03;20.23;;;10.00;65.40;;;;;;9180340;19;20019;-71
2022/04/25 04:30:39;;;;;;;35.47;19.98;;;10.00;65.40;;;;;;9180278;19;20006;-71
2022/04/25 04:33:44;;;;;;;34.58;18.65;;;10.00;65.50;;;;;;9181070;19;20043;-71
2022/04/25 04:36:49;;;;;;;31.65;17.55;;;10.00;65.50;;;;;;9180532;19;20017;-71
2022/04/25 04:40:28;;;;;;;32.08;17.95;;;9.90;65.40;;;;;;9182394;19;20045;-71
2022/04/25 04:43:20;;;;;;;33.15;17.88;;;9.90;65.50;;;;;;9180323;19;20029;-71
2022/04/25 04:46:28;;;;;;;27.30;16.00;;;9.90;65.50;;;;;;9177892;19;20029;-69
2022/04/25 04:49:33;;;;;;;35.58;17.35;;;9.90;65.60;;;;;;9180433;19;20018;-71
2022/04/25 04:52:39;;;;;;;30.20;16.70;;;9.90;65.60;;;;;;9180100;19;20479;-70
2022/04/25 04:55:44;;;;;;;30.77;16.48;;;9.90;65.60;;;;;;9181721;19;20490;-70
2022/04/25 04:58:49;;;;;;;31.30;15.48;;;9.80;65.50;;;;;;9181227;19;20010;-71
2022/04/25 05:01:56;;;;;;;35.88;16.05;;;9.80;65.60;;;;;;9179753;19;20029;-70
2022/04/25 05:05:02;;;;;;;28.33;15.68;;;9.80;65.70;;;;;;9179250;19;20011;-71
2022/04/25 05:08:07;;;;;;;31.98;15.75;;;9.80;65.80;;;;;;9183633;19;20018;-71
2022/04/25 05:11:12;;;;;;;30.08;16.38;;;9.70;65.80;;;;;;9186877;19;20018;-71
2022/04/25 05:14:17;;;;;;;28.88;15.43;;;9.70;65.80;;;;;;9185391;19;20026;-71
2022/04/25 05:17:25;;;;;;;43.08;17.45;;;9.70;65.80;;;;;;9189292;19;20006;-71
2022/04/25 05:20:30;;;;;;;30.35;16.52;;;9.80;66.00;;;;;;9189969;19;20348;-71
2022/04/25 05:23:35;;;;;;;28.05;15.45;;;9.80;65.90;;;;;;9187671;19;20027;-71
2022/04/25 05:26:40;;;;;;;34.60;17.05;;;9.80;65.90;;;;;;9186374;19;20468;-70
2022/04/25 05:29:48;;;;;;;31.60;16.17;;;9.80;66.00;;;;;;9190027;19;20018;-71
2022/04/25 05:32:57;;;;;;;36.08;17.02;;;9.80;66.00;;;;;;9185422;19;20029;-71
2022/04/25 05:36:02;;;;;;;35.33;17.42;;;9.80;66.10;;;;;;9189076;19;20052;-71
2022/04/25 05:39:07;;;;;;;41.53;17.88;;;9.80;66.00;;;;;;9189469;19;20015;-71
2022/04/25 05:42:12;;;;;;;40.42;19.17;;;9.70;66.00;;;;;;9187909;19;20329;-71
2022/04/25 05:45:19;;;;;;;38.10;17.67;;;9.70;66.10;;;;;;9186692;19;20029;-71
2022/04/25 05:52:05;;;;;;;43.05;18.80;;;9.70;66.30;;;;;;9184511;19;20069;-71
2022/04/25 05:55:11;;;;;;;43.60;19.25;;;9.60;66.20;;;;;;9187899;19;20448;-71
2022/04/25 05:58:16;;;;;;;37.60;18.15;;;9.60;66.20;;;;;;9186922;19;20510;-71
2022/04/25 06:01:20;;;;;;;32.90;17.20;;;9.60;66.30;;;;;;9187271;19;20568;-70
2022/04/25 06:04:28;;;;;;;34.22;17.67;;;9.60;66.30;;;;;;9187641;19;20023;-71
2022/04/25 06:07:34;;;;;;;35.50;18.25;;;9.60;66.40;;;;;;9180490;19;20408;-71
2022/04/25 06:10:39;;;;;;;45.50;17.35;;;9.60;66.40;;;;;;9176060;19;20022;-70
2022/04/25 06:13:45;;;;;;;36.47;17.23;;;9.60;66.50;;;;;;9177531;19;20018;-70
2022/04/25 06:16:50;;;;;;;31.90;16.92;;;9.50;66.50;;;;;;9177906;19;20468;-71
2022/04/25 06:19:57;;;;;;;36.55;18.02;;;9.50;66.50;;;;;;9177843;19;20052;-71
2022/04/25 06:23:05;;;;;;;40.00;17.05;;;9.50;66.70;;;;;;9174720;19;20484;-70
2022/04/25 06:26:10;;;;;;;38.58;16.95;;;9.50;66.60;;;;;;9174674;19;20025;-70
2022/04/25 06:29:15;;;;;;;36.83;17.17;;;9.50;66.70;;;;;;9173453;19;20014;-71
2022/04/25 06:32:20;;;;;;;30.67;16.80;;;9.50;66.80;;;;;;9175189;19;20015;-70
2022/04/25 06:35:28;;;;;;;37.42;16.40;;;9.50;66.80;;;;;;9171794;19;20014;-71
2022/04/25 06:38:33;;;;;;;29.48;15.02;;;9.50;66.90;;;;;;9173024;19;20022;-71
2022/04/25 06:41:38;;;;;;;28.77;15.32;;;9.50;66.80;;;;;;9177906;19;20018;-71
2022/04/25 06:44:43;;;;;;;33.45;17.42;;;9.50;66.80;;;;;;9177964;19;20026;-71
2022/04/25 06:47:49;;;;;;;34.72;16.38;;;9.50;66.90;;;;;;9178468;19;20020;-71
2022/04/25 06:50:57;;;;;;;29.73;15.68;;;9.50;67.00;;;;;;9183435;19;20015;-71
2022/04/25 06:54:02;;;;;;;41.83;16.13;;;9.50;67.00;;;;;;9178473;19;20021;-71
2022/04/25 06:57:08;;;;;;;27.13;16.83;;;9.50;67.00;;;;;;9177475;19;20484;-71
2022/04/25 07:00:17;;;;;;;31.55;16.98;;;9.60;67.10;;;;;;9182955;19;20656;-72
2022/04/25 07:03:39;;;;;;;34.58;16.13;;;9.60;67.10;;;;;;9176743;19;20014;-71
2022/04/25 07:06:47;;;;;;;28.83;15.02;;;9.60;67.00;;;;;;9174570;19;20011;-71
2022/04/25 07:09:55;;;;;;;28.88;15.40;;;9.60;67.10;;;;;;9167700;19;20379;-71
2022/04/25 07:13:00;;;;;;;33.22;15.30;;;9.60;67.10;;;;;;9175599;19;20025;-71
2022/04/25 07:16:05;;;;;;;26.48;14.18;;;9.70;67.10;;;;;;9171634;19;20029;-71
2022/04/25 07:19:10;;;;;;;35.20;15.52;;;9.70;67.10;;;;;;9175227;19;20022;-71
2022/04/25 07:28:58;;;;;;;30.50;14.88;;;9.70;67.20;;;;;;9178610;19;20360;-71
2022/04/25 07:32:03;;;;;;;24.02;13.70;;;9.70;67.10;;;;;;9175339;19;20022;-71
2022/04/25 07:35:09;;;;;;;27.83;13.68;;;9.70;67.10;;;;;;9179136;19;20011;-71
2022/04/25 07:38:17;;;;;;;27.42;14.85;;;9.70;67.10;;;;;;9177687;19;20018;-71
2022/04/25 07:41:22;;;;;;;23.77;12.88;;;9.70;67.30;;;;;;9178544;19;20013;-71
2022/04/25 07:44:39;;;;;;;26.77;12.48;;;9.70;67.30;;;;;;9183295;19;20476;-71
2022/04/25 07:47:45;;;;;;;27.15;13.55;;;9.70;67.20;;;;;;9182136;19;20649;-71
2022/04/25 07:50:50;;;;;;;28.33;12.85;;;9.70;67.20;;;;;;9182906;19;20022;-71
2022/04/25 07:53:58;;;;;;;27.60;13.45;;;9.70;67.20;;;;;;9182193;19;20014;-71
2022/04/25 07:57:03;;;;;;;26.50;13.48;;;9.70;67.40;;;;;;9182124;19;20010;-71
2022/04/25 08:00:10;;;;;;;27.33;13.30;;;9.80;67.50;;;;;;9180629;19;20340;-71
2022/04/25 08:03:15;;;;;;;25.85;11.93;;;9.80;67.50;;;;;;9176748;19;20843;-71
2022/04/25 08:06:20;;;;;;;24.85;11.65;;;9.80;67.40;;;;;;9177054;19;20491;-71
2022/04/25 08:09:28;;;;;;;33.50;13.80;;;9.80;67.50;;;;;;9169005;19;20022;-71
2022/04/25 08:19:08;;;;;;;18.73;11.77;;;9.80;67.60;;;;;;9177787;19;20014;-71
2022/04/25 08:22:14;;;;;;;20.83;11.38;;;9.80;67.70;;;;;;9178429;19;20034;-71
2022/04/25 08:25:21;;;;;;;18.65;11.95;;;9.80;67.70;;;;;;9176472;19;21071;-71
2022/04/25 08:28:27;;;;;;;23.20;11.73;;;9.80;67.80;;;;;;9177026;19;20022;-71
2022/04/25 08:31:52;;;;;;;20.73;11.07;;;9.90;67.90;;;;;;9176294;19;20074;-71
2022/04/25 08:34:57;;;;;;;20.67;11.25;;;9.80;68.50;;;;;;9178612;19;20720;-71
2022/04/25 08:38:02;;;;;;;25.15;11.75;;;9.90;67.90;;;;;;9174645;19;20026;-71
2022/04/25 08:41:10;;;;;;;26.85;10.82;;;9.90;67.90;;;;;;9179654;19;20025;-71
2022/04/25 08:44:18;;;;;;;25.77;11.43;;;9.90;68.00;;;;;;9185453;19;20018;-71
2022/04/25 08:47:27;;;;;;;20.85;11.20;;;9.90;68.10;;;;;;9180823;19;20026;-70
2022/04/25 08:50:33;;;;;;;19.45;12.05;;;9.90;68.10;;;;;;9181221;19;20369;-70
2022/04/25 08:53:39;;;;;;;19.58;11.82;;;10.00;68.10;;;;;;9186433;19;20317;-72
2022/04/25 08:56:48;;;;;;;23.67;11.07;;;10.00;68.20;;;;;;9186389;19;20490;-70
2022/04/25 08:59:55;;;;;;;21.40;11.90;;;10.00;68.20;;;;;;9183128;19;20007;-71
2022/04/25 09:03:00;;;;;;;23.42;11.40;;;10.00;68.10;;;;;;9190541;19;20398;-72
2022/04/25 09:06:06;;;;;;;26.42;10.88;;;10.00;68.10;;;;;;9187412;19;20360;-71
2022/04/25 09:09:11;;;;;;;20.63;11.10;;;10.00;68.10;;;;;;9184683;19;20019;-71
2022/04/25 09:12:19;;;;;;;27.52;12.07;;;10.00;68.10;;;;;;9189279;19;20364;-71
2022/04/25 09:15:26;;;;;;;25.40;12.18;;;10.00;68.20;;;;;;9187317;19;20094;-71
2022/04/25 09:18:31;;;;;;;31.35;13.00;;;10.00;68.20;;;;;;9190678;19;20018;-71
2022/04/25 09:21:43;;;;;;;23.33;11.52;;;10.00;68.20;;;;;;9186556;19;20021;-71
2022/04/25 09:24:48;;;;;;;27.95;12.30;;;10.00;68.40;;;;;;9188228;19;20492;-71
2022/04/25 09:28:09;;;;;;;29.65;12.52;;;10.00;68.20;;;;;;9186164;19;20015;-71
2022/04/25 09:31:16;;;;;;;26.48;11.80;;;9.90;68.50;;;;;;9187297;19;20015;-71
2022/04/25 09:34:59;;;;;;;26.92;12.00;;;9.90;68.20;;;;;;9189702;19;20365;-71
2022/04/25 09:37:48;;;;;;;31.08;12.30;;;9.90;68.30;;;;;;9187267;19;20033;-71
2022/04/25 09:40:53;;;;;;;25.23;11.48;;;9.90;68.30;;;;;;9187417;19;20006;-70
2022/04/25 09:44:03;;;;;;;22.90;12.55;;;9.90;68.30;;;;;;9188730;19;20022;-70
2022/04/25 09:47:09;;;;;;;26.67;12.45;;;10.00;68.50;;;;;;9187195;19;20472;-71
2022/04/25 09:50:15;;;;;;;26.48;11.85;;;9.90;68.30;;;;;;9186668;19;20034;-71
2022/04/25 09:53:49;;;;;;;29.95;12.98;;;9.90;68.30;;;;;;9186405;19;20019;-70
2022/04/25 09:56:55;;;;;;;32.28;12.43;;;10.00;68.70;;;;;;9186612;19;20010;-71
2022/04/25 10:00:03;;;;;;;22.42;13.85;;;9.90;68.30;;;;;;9185541;19;20585;-71
2022/04/25 10:03:18;;;;;;;28.83;14.43;;;9.90;68.50;;;;;;9186863;19;20460;-71
2022/04/25 10:06:25;;;;;;;27.58;15.45;;;10.00;68.50;;;;;;9187671;19;20464;-71
2022/04/25 10:09:32;;;;;;;27.80;15.77;;;10.00;68.50;;;;;;9180111;19;20018;-71
2022/04/25 10:12:39;;;;;;;29.85;14.93;;;10.00;68.50;;;;;;9184155;19;20011;-71
2022/04/25 10:15:48;;;;;;;29.45;15.48;;;10.00;68.50;;;;;;9187526;19;20018;-71
2022/04/25 10:18:54;;;;;;;32.15;14.50;;;10.00;68.60;;;;;;9186014;19;20022;-71
2022/04/25 10:21:59;;;;;;;29.70;16.10;;;10.10;68.50;;;;;;9177555;19;20030;-70
2022/04/25 10:25:05;;;;;;;29.52;15.43;;;10.10;68.60;;;;;;9177751;19;20026;-70
2022/04/25 10:28:16;;;;;;;23.52;13.10;;;10.10;68.60;;;;;;9172355;19;20027;-70
2022/04/25 10:31:28;;;;;;;29.83;13.40;;;10.10;68.70;;;;;;9174458;19;20014;-70
2022/04/25 10:34:51;;;;;;;25.05;12.32;;;10.20;68.80;;;;;;9180725;19;20014;-70
2022/04/25 10:37:56;;;;;;;24.98;12.15;;;10.20;68.80;;;;;;9183182;19;20657;-72
2022/04/25 10:44:49;;;;;;;20.63;10.52;;;10.40;68.70;;;;;;9178105;19;20042;-70
2022/04/25 10:48:00;;;;;;;26.33;10.98;;;10.40;68.80;;;;;;9175255;19;20015;-70
2022/04/25 10:51:13;;;;;;;21.75;11.15;;;10.50;68.70;;;;;;9183659;19;20333;-70
2022/04/25 10:54:23;;;;;;;26.65;11.85;;;10.50;68.60;;;;;;9179322;19;20467;-70
2022/04/25 10:57:28;;;;;;;22.80;11.05;;;10.60;68.50;;;;;;9182304;19;20037;-70
2022/04/25 11:00:49;;;;;;;21.20;11.43;;;10.60;68.40;;;;;;9182643;19;20022;-70
2022/04/25 11:04:07;;;;;;;28.67;12.02;;;10.70;68.70;;;;;;9177222;19;20044;-71
2022/04/25 11:07:24;;;;;;;25.48;14.15;;;10.70;68.60;;;;;;9180771;19;20021;-70
2022/04/25 11:10:46;;;;;;;28.10;13.30;;;10.80;68.60;;;;;;9175621;19;20018;-70
2022/04/25 11:14:22;;;;;;;25.23;13.40;;;10.80;68.60;;;;;;9185409;19;20007;-70
2022/04/25 11:17:27;;;;;;;23.42;12.95;;;10.90;68.50;;;;;;9183068;19;20022;-70
2022/04/25 11:21:02;;;;;;;24.48;13.25;;;10.90;68.30;;;;;;9184072;19;20062;-71
2022/04/25 11:24:38;;;;;;;25.10;12.35;;;10.90;68.50;;;;;;9184418;19;20014;-71
2022/04/25 11:28:02;;;;;;;21.40;12.88;;;11.00;68.40;;;;;;9184335;19;20398;-71
2022/04/25 11:31:24;;;;;;;18.65;11.55;;;11.00;68.40;;;;;;9183707;19;20014;-71
2022/04/25 11:34:30;;;;;;;19.55;10.88;;;11.00;68.40;;;;;;9185350;19;20014;-71
2022/04/25 11:37:36;;;;;;;22.88;12.15;;;11.10;68.30;;;;;;9183124;19;20052;-67
2022/04/25 11:40:44;;;;;;;29.70;13.82;;;11.10;68.30;;;;;;9182958;19;20015;-66
2022/04/25 11:43:49;;;;;;;23.23;13.38;;;11.20;68.30;;;;;;9183340;19;20023;-67
2022/04/25 11:46:54;;;;;;;22.17;13.60;;;11.20;68.30;;;;;;9182992;19;20022;-66
2022/04/25 11:50:02;;;;;;;17.60;11.98;;;11.20;68.20;;;;;;9182090;19;20014;-66
2022/04/25 11:53:09;;;;;;;21.90;13.02;;;11.30;68.30;;;;;;9182545;19;20095;-65
2022/04/25 11:56:21;;;;;;;22.63;12.13;;;11.30;68.20;;;;;;9182477;19;20482;-65
2022/04/25 11:59:26;;;;;;;18.75;12.27;;;11.40;68.30;;;;;;9183999;19;20011;-66
2022/04/25 12:02:37;;;;;;;25.48;13.55;;;11.40;68.10;;;;;;9184865;19;20020;-67
2022/04/25 12:05:42;;;;;;;23.20;12.82;;;11.40;68.20;;;;;;9182799;19;20015;-66
2022/04/25 12:15:38;;;;;;;21.55;13.80;;;11.40;68.10;;;;;;9180796;19;20052;-65
2022/04/25 12:18:51;;;;;;;27.17;15.50;;;11.40;68.10;;;;;;9182652;19;20333;-66
2022/04/25 12:22:03;;;;;;;33.70;18.43;;;11.40;68.80;;;;;;9182785;19;20017;-67
2022/04/25 12:25:16;;;;;;;33.05;16.02;;;11.50;68.20;;;;;;9180864;19;20010;-66
2022/04/25 12:28:26;;;;;;;26.75;15.30;;;11.40;68.20;;;;;;9180355;19;20029;-66
2022/04/25 12:31:32;;;;;;;26.00;15.50;;;11.50;68.30;;;;;;9182852;19;20041;-66
2022/04/25 12:34:37;;;;;;;27.50;14.38;;;11.50;68.20;;;;;;9180533;19;20007;-66
2022/04/25 12:37:43;;;;;;;29.75;14.25;;;11.50;68.10;;;;;;9180602;19;20484;-67
2022/04/25 12:40:58;;;;;;;22.58;14.05;;;11.50;68.20;;;;;;9179116;19;20018;-67
2022/04/25 12:44:16;;;;;;;23.67;13.10;;;11.50;68.30;;;;;;9179887;19;20014;-67
2022/04/25 12:47:22;;;;;;;27.55;15.55;;;11.50;68.40;;;;;;9181605;19;20014;-67
2022/04/25 12:50:45;;;;;;;27.55;15.77;;;11.50;68.20;;;;;;9177871;19;20029;-67
2022/04/25 12:53:50;;;;;;;25.93;13.43;;;11.50;68.40;;;;;;9182371;19;20022;-66
2022/04/25 12:57:08;;;;;;;29.52;17.42;;;11.50;68.10;;;;;;9181877;19;21022;-67
2022/04/25 13:00:18;;;;;;;36.70;18.25;;;11.50;68.20;;;;;;9181333;19;20018;-68
2022/04/25 13:03:25;;;;;;;29.75;17.27;;;11.50;68.20;;;;;;9179899;19;20011;-67
2022/04/25 13:06:30;;;;;;;29.38;18.13;;;11.50;68.20;;;;;;9179828;19;20022;-67
2022/04/25 13:09:35;;;;;;;28.02;17.48;;;11.60;68.20;;;;;;9169274;19;20038;-67
2022/04/25 13:12:42;;;;;;;25.55;16.35;;;11.50;68.20;;;;;;9176404;19;20455;-67
2022/04/25 13:15:50;;;;;;;26.77;15.35;;;11.50;68.20;;;;;;9178817;19;20006;-66
2022/04/25 13:18:55;;;;;;;23.98;15.40;;;11.60;68.30;;;;;;9176191;19;20011;-68
2022/04/25 13:22:00;;;;;;;32.65;15.25;;;11.60;68.20;;;;;;9180565;19;20033;-66
2022/04/25 13:25:06;;;;;;;25.92;15.02;;;11.60;68.20;;;;;;9178642;19;20019;-67
2022/04/25 13:28:11;;;;;;;23.77;13.85;;;11.60;68.20;;;;;;9178672;19;20037;-67
2022/04/25 13:31:19;;;;;;;24.08;13.73;;;11.70;68.20;;;;;;9187716;19;20018;-67
2022/04/25 13:34:24;;;;;;;25.77;14.10;;;11.70;68.20;;;;;;9187474;19;20018;-67
2022/04/25 13:37:31;;;;;;;28.65;15.35;;;11.80;68.10;;;;;;9187939;19;20021;-67
2022/04/25 13:40:36;;;;;;;24.30;14.07;;;11.90;68.20;;;;;;9186938;19;20018;-67
2022/04/25 13:43:43;;;;;;;34.85;15.68;;;11.90;68.20;;;;;;9188315;19;20021;-67
2022/04/25 13:46:51;;;;;;;23.52;14.57;;;12.00;68.20;;;;;;9186008;19;20014;-68
2022/04/25 13:49:57;;;;;;;27.60;16.02;;;12.00;68.10;;;;;;9184087;19;20018;-67
2022/04/25 13:53:01;;;;;;;26.63;15.85;;;12.10;68.00;;;;;;9186769;19;20693;-67
2022/04/25 13:56:08;;;;;;;29.38;16.58;;;12.20;68.00;;;;;;9185716;19;20022;-67
2022/04/25 13:59:14;;;;;;;32.90;17.48;;;12.20;67.90;;;;;;9188629;19;20010;-66
2022/04/25 14:05:41;;;;;;;31.23;17.67;;;12.20;67.80;;;;;;9187472;19;20029;-67
2022/04/25 14:08:44;;;;;;;23.40;15.70;;;12.20;67.70;;;;;;9182684;19;20033;-67
2022/04/25 14:11:50;;;;;;;29.25;16.67;;;12.30;67.80;;;;;;9188962;19;20018;-67
2022/04/25 14:14:55;;;;;;;28.35;17.17;;;12.30;67.80;;;;;;9188818;19;20490;-67
2022/04/25 14:18:03;;;;;;;34.17;17.85;;;12.30;67.70;;;;;;9187115;19;20022;-67
2022/04/25 14:21:08;;;;;;;36.28;18.80;;;12.30;67.80;;;;;;9188302;19;20774;-67
2022/04/25 14:24:13;;;;;;;34.45;20.17;;;12.30;67.70;;;;;;9185959;19;20015;-69
2022/04/25 14:27:18;;;;;;;34.75;18.55;;;12.30;67.70;;;;;;9188357;19;20052;-67
2022/04/25 14:30:24;;;;;;;30.88;19.05;;;12.30;67.70;;;;;;9184943;19;20006;-67
2022/04/25 14:33:32;;;;;;;28.83;19.90;;;12.30;67.70;;;;;;9185900;19;20014;-69
2022/04/25 14:36:38;;;;;;;31.48;18.35;;;12.30;67.70;;;;;;9185333;19;20025;-68
2022/04/25 14:39:43;;;;;;;31.80;17.70;;;12.20;67.60;;;;;;9184911;19;20082;-66
2022/04/25 14:42:50;;;;;;;34.03;19.60;;;12.20;67.60;;;;;;9178842;19;20014;-67
2022/04/25 14:45:55;;;;;;;30.95;17.73;;;12.20;67.70;;;;;;9180526;19;20021;-69
2022/04/25 14:49:03;;;;;;;30.85;17.05;;;12.20;67.70;;;;;;9181110;19;20025;-68
2022/04/25 14:55:27;;;;;;;32.55;17.45;;;12.20;67.70;;;;;;9174133;19;20019;-67
2022/04/25 14:58:32;;;;;;;28.40;16.90;;;12.20;67.70;;;;;;9180715;19;20349;-67
2022/04/25 15:01:37;;;;;;;29.13;17.88;;;12.20;67.80;;;;;;9178136;19;20022;-68
2022/04/25 15:04:44;;;;;;;30.95;17.75;;;12.20;67.80;;;;;;9178844;19;20039;-67
2022/04/25 15:07:49;;;;;;;26.55;17.00;;;12.20;67.80;;;;;;9176780;19;20021;-70
2022/04/25 15:10:54;;;;;;;29.23;17.23;;;12.30;67.80;;;;;;9172579;19;20460;-68
2022/04/25 15:13:59;;;;;;;30.70;17.98;;;12.30;67.80;;;;;;9177965;19;20054;-68
2022/04/25 15:17:05;;;;;;;31.40;19.52;;;12.30;67.70;;;;;;9177029;19;20094;-68
2022/04/25 15:20:14;;;;;;;27.48;17.02;;;12.30;67.80;;;;;;9177690;19;20026;-68
2022/04/25 15:23:19;;;;;;;38.05;17.90;;;12.30;67.80;;;;;;9175355;19;20492;-68
2022/04/25 15:26:24;;;;;;;24.25;17.02;;;12.40;67.80;;;;;;9176451;19;20364;-69
2022/04/25 15:29:29;;;;;;;28.40;16.80;;;12.40;67.70;;;;;;9177291;19;20043;-68
2022/04/25 15:32:34;;;;;;;29.55;16.50;;;12.50;67.80;;;;;;9177962;19;20024;-67
2022/04/25 15:35:44;;;;;;;25.45;14.52;;;12.50;67.70;;;;;;9174134;19;20027;-67
2022/04/25 15:38:49;;;;;;;25.38;16.33;;;12.50;67.70;;;;;;9173751;19;20007;-67
2022/04/25 15:41:54;;;;;;;24.50;15.63;;;12.50;67.60;;;;;;9173994;19;20025;-68
2022/04/25 15:44:59;;;;;;;26.65;15.52;;;12.60;67.60;;;;;;9174326;19;20014;-68
2022/04/25 15:48:04;;;;;;;33.33;16.75;;;12.60;67.60;;;;;;9174238;19;20024;-67
2022/04/25 15:51:12;;;;;;;24.52;14.45;;;12.60;67.60;;;;;;9175982;19;20019;-67
2022/04/25 15:57:50;;;;;;;23.85;13.52;;;12.60;67.50;;;;;;9182171;19;20057;-67
2022/04/25 16:00:56;;;;;;;27.20;14.85;;;12.60;67.40;;;;;;9178435;19;20018;-68
2022/04/25 16:04:01;;;;;;;27.23;14.40;;;12.60;67.40;;;;;;9176893;19;20025;-68
2022/04/25 16:07:09;;;;;;;24.38;14.48;;;12.60;67.50;;;;;;9177984;19;20050;-71
2022/04/25 16:10:15;;;;;;;25.88;14.48;;;12.60;67.50;;;;;;9165541;19;20014;-68
2022/04/25 16:13:23;;;;;;;25.13;14.18;;;12.60;67.40;;;;;;9171243;19;20606;-69
2022/04/25 16:16:28;;;;;;;20.95;14.13;;;12.60;67.50;;;;;;9173823;19;20022;-68
2022/04/25 16:19:33;;;;;;;21.55;14.43;;;12.60;67.50;;;;;;9178255;19;20014;-69
2022/04/25 16:22:41;;;;;;;23.75;12.60;;;12.70;67.50;;;;;;9178717;19;20025;-69
2022/04/25 16:25:46;;;;;;;21.00;11.75;;;12.60;67.50;;;;;;9178046;19;20046;-68
2022/04/25 16:28:51;;;;;;;20.15;12.82;;;12.70;67.50;;;;;;9178259;19;20025;-68
2022/04/25 16:31:57;;;;;;;18.17;11.05;;;12.70;67.50;;;;;;9172577;19;20018;-68
2022/04/25 16:35:02;;;;;;;19.40;11.48;;;12.70;67.50;;;;;;9175904;19;20117;-68
2022/04/25 16:38:11;;;;;;;19.02;12.80;;;12.70;67.40;;;;;;9177994;19;20018;-69